createdAt,value
2017-08-07T00:00:07.368Z,84.48
2017-08-07T00:00:48.248Z,84.48
2017-08-07T00:01:29.148Z,84.48
2017-08-07T00:02:10.034Z,84.58
2017-08-07T00:02:50.932Z,84.95
2017-08-07T00:03:31.816Z,85.15
2017-08-07T00:04:12.703Z,84.67
2017-08-07T00:04:53.619Z,85.05
2017-08-07T00:05:34.503Z,84.95
2017-08-07T00:06:15.393Z,84.86
2017-08-07T00:06:56.293Z,84.86
2017-08-07T00:07:37.178Z,85.15
2017-08-07T00:08:18.068Z,84.38
2017-08-07T00:08:58.977Z,84.67
2017-08-07T00:09:39.857Z,84.58
2017-08-07T00:10:20.747Z,84.95
2017-08-07T00:11:01.648Z,85.05
2017-08-07T00:11:42.531Z,85.05
2017-08-07T00:12:23.419Z,85.05
2017-08-07T00:13:04.310Z,85.15
2017-08-07T00:13:45.223Z,85.53
2017-08-07T00:14:26.114Z,85.44
2017-08-07T00:15:06.998Z,85.44
2017-08-07T00:15:47.890Z,85.44
2017-08-07T00:16:28.781Z,86.01
2017-08-07T00:17:09.677Z,85.92
2017-08-07T00:17:50.557Z,85.44
2017-08-07T00:18:31.473Z,85.82
2017-08-07T00:19:12.359Z,85.63
2017-08-07T00:19:53.250Z,85.82
2017-08-07T00:20:34.149Z,85.72
2017-08-07T00:21:15.038Z,85.68
2017-08-07T00:21:55.927Z,86.16
2017-08-07T00:22:36.816Z,85.68
2017-08-07T00:23:17.702Z,85.88
2017-08-07T00:23:58.595Z,86.54
2017-08-07T00:24:39.489Z,86.07
2017-08-07T00:25:20.379Z,85.97
2017-08-07T00:26:01.260Z,86.64
2017-08-07T00:26:42.183Z,86.35
2017-08-07T00:27:23.070Z,86.74
2017-08-07T00:28:03.967Z,86.64
2017-08-07T00:28:44.856Z,86.93
2017-08-07T00:29:25.754Z,87.02
2017-08-07T00:30:06.777Z,86.54
2017-08-07T00:30:47.664Z,86.83
2017-08-07T00:31:28.562Z,87.02
2017-08-07T00:32:09.447Z,87.02
2017-08-07T00:32:50.342Z,87.12
2017-08-07T00:33:31.226Z,86.93
2017-08-07T00:34:12.137Z,86.64
2017-08-07T00:34:53.027Z,87.12
2017-08-07T00:35:33.915Z,86.93
2017-08-07T00:36:14.808Z,87.02
2017-08-07T00:36:55.699Z,86.93
2017-08-07T00:37:36.588Z,87.02
2017-08-07T00:38:17.479Z,87.12
2017-08-07T00:38:58.360Z,87.21
2017-08-07T00:39:39.254Z,86.54
2017-08-07T00:40:20.147Z,86.83
2017-08-07T00:41:01.024Z,86.93
2017-08-07T00:41:41.932Z,86.93
2017-08-07T00:42:22.819Z,86.83
2017-08-07T00:43:03.709Z,87.02
2017-08-07T00:43:44.597Z,86.83
2017-08-07T00:44:25.512Z,86.74
2017-08-07T00:45:06.399Z,87.02
2017-08-07T00:45:47.291Z,87.02
2017-08-07T00:46:28.186Z,87.02
2017-08-07T00:47:09.077Z,87.21
2017-08-07T00:47:49.987Z,87.02
2017-08-07T00:48:30.865Z,86.93
2017-08-07T00:49:11.750Z,87.12
2017-08-07T00:49:52.643Z,86.54
2017-08-07T00:50:33.536Z,86.64
2017-08-07T00:51:14.426Z,86.83
2017-08-07T00:51:55.309Z,87.6
2017-08-07T00:52:36.202Z,87.5
2017-08-07T00:53:17.107Z,87.12
2017-08-07T00:54:46.201Z,87.31
2017-08-07T00:55:27.093Z,86.93
2017-08-07T00:56:07.980Z,87.12
2017-08-07T00:56:48.869Z,86.93
2017-08-07T00:57:29.763Z,87.12
2017-08-07T00:58:10.675Z,87.02
2017-08-07T00:58:51.547Z,87.02
2017-08-07T00:59:32.435Z,86.74
2017-08-07T01:00:13.358Z,86.93
2017-08-07T01:00:54.270Z,87.6
2017-08-07T01:01:35.156Z,87.5
2017-08-07T01:02:16.043Z,86.74
2017-08-07T01:02:56.929Z,86.64
2017-08-07T01:03:37.826Z,87.02
2017-08-07T01:04:18.714Z,87.7
2017-08-07T01:04:59.619Z,88.08
2017-08-07T01:05:40.507Z,87.98
2017-08-07T01:06:21.409Z,87.74
2017-08-07T01:07:02.297Z,87.6
2017-08-07T01:07:43.201Z,87.41
2017-08-07T01:08:24.084Z,87.7
2017-08-07T01:09:04.971Z,87.98
2017-08-07T01:09:45.855Z,87.88
2017-08-07T01:10:26.735Z,87.79
2017-08-07T01:11:07.674Z,88.27
2017-08-07T01:11:48.534Z,87.79
2017-08-07T01:12:29.416Z,87.7
2017-08-07T01:13:10.305Z,87.98
2017-08-07T01:13:51.202Z,87.5
2017-08-07T01:14:32.088Z,87.6
2017-08-07T01:15:12.976Z,87.6
2017-08-07T01:15:53.863Z,87.79
2017-08-07T01:16:34.759Z,87.74
2017-08-07T01:17:15.643Z,87.94
2017-08-07T01:17:56.536Z,87.94
2017-08-07T01:18:37.422Z,88.8
2017-08-07T01:19:18.302Z,88.42
2017-08-07T01:19:59.188Z,88.9
2017-08-07T01:20:40.089Z,88.51
2017-08-07T01:21:20.970Z,88.7
2017-08-07T01:22:01.890Z,88.51
2017-08-07T01:22:42.778Z,88.42
2017-08-07T01:23:23.680Z,88.51
2017-08-07T01:24:04.559Z,88.32
2017-08-07T01:24:45.449Z,88.32
2017-08-07T01:25:26.334Z,88.51
2017-08-07T01:26:07.229Z,88.32
2017-08-07T01:26:48.121Z,89.18
2017-08-07T01:27:29.001Z,88.61
2017-08-07T01:28:09.931Z,88.8
2017-08-07T01:28:50.824Z,88.8
2017-08-07T01:29:31.699Z,88.32
2017-08-07T01:30:12.568Z,88.61
2017-08-07T01:30:53.478Z,88.8
2017-08-07T01:31:34.364Z,88.61
2017-08-07T01:32:15.316Z,88.13
2017-08-07T01:32:56.202Z,88.42
2017-08-07T01:33:37.095Z,88.23
2017-08-07T01:34:17.986Z,88.8
2017-08-07T01:34:58.877Z,88.13
2017-08-07T01:35:39.763Z,88.32
2017-08-07T01:36:20.650Z,87.74
2017-08-07T01:37:01.547Z,87.74
2017-08-07T01:37:42.431Z,88.13
2017-08-07T01:38:23.320Z,87.94
2017-08-07T01:39:04.207Z,87.84
2017-08-07T01:39:45.137Z,88.03
2017-08-07T01:40:26.023Z,87.65
2017-08-07T01:41:06.924Z,88.03
2017-08-07T01:41:47.808Z,87.94
2017-08-07T01:42:28.701Z,87.94
2017-08-07T01:43:09.640Z,87.94
2017-08-07T01:43:50.527Z,87.94
2017-08-07T01:44:31.414Z,87.94
2017-08-07T01:45:12.289Z,87.74
2017-08-07T01:45:53.183Z,87.79
2017-08-07T01:46:34.076Z,87.98
2017-08-07T01:47:14.974Z,87.74
2017-08-07T01:47:55.861Z,87.46
2017-08-07T01:48:36.749Z,87.55
2017-08-07T01:49:17.623Z,88.13
2017-08-07T01:49:58.513Z,88.23
2017-08-07T01:50:39.411Z,87.74
2017-08-07T01:51:20.301Z,87.65
2017-08-07T01:52:01.190Z,87.74
2017-08-07T01:52:42.076Z,88.13
2017-08-07T01:53:22.964Z,87.94
2017-08-07T01:54:03.857Z,87.94
2017-08-07T01:54:44.748Z,88.23
2017-08-07T01:55:25.637Z,87.74
2017-08-07T01:56:06.530Z,87.74
2017-08-07T01:56:47.420Z,88.03
2017-08-07T01:57:28.301Z,87.65
2017-08-07T01:58:09.186Z,88.32
2017-08-07T01:58:50.073Z,87.94
2017-08-07T01:59:30.971Z,87.65
2017-08-07T02:00:11.865Z,88.13
2017-08-07T02:00:52.754Z,87.94
2017-08-07T02:01:33.640Z,87.94
2017-08-07T02:02:55.440Z,88.32
2017-08-07T02:03:36.331Z,87.74
2017-08-07T02:04:17.215Z,88.32
2017-08-07T02:04:58.107Z,88.32
2017-08-07T02:05:38.999Z,87.84
2017-08-07T02:06:19.896Z,88.13
2017-08-07T02:07:00.783Z,88.32
2017-08-07T02:07:41.677Z,88.13
2017-08-07T02:08:22.567Z,88.61
2017-08-07T02:09:03.457Z,88.7
2017-08-07T02:09:44.351Z,88.8
2017-08-07T02:10:25.241Z,88.51
2017-08-07T02:11:06.130Z,88.8
2017-08-07T02:13:04.918Z,88.8
2017-08-07T02:13:45.811Z,88.61
2017-08-07T02:14:26.684Z,88.7
2017-08-07T02:15:07.575Z,88.61
2017-08-07T02:15:48.457Z,88.8
2017-08-07T02:16:29.367Z,88.7
2017-08-07T02:17:10.259Z,88.61
2017-08-07T02:17:51.146Z,88.7
2017-08-07T02:18:32.048Z,88.51
2017-08-07T02:19:12.934Z,88.23
2017-08-07T02:19:53.807Z,88.99
2017-08-07T02:20:34.696Z,88.56
2017-08-07T02:21:15.581Z,89.14
2017-08-07T02:21:56.469Z,88.76
2017-08-07T02:22:37.367Z,88.95
2017-08-07T02:23:18.255Z,88.66
2017-08-07T02:23:59.143Z,88.85
2017-08-07T02:24:40.034Z,88.85
2017-08-07T02:25:20.915Z,89.33
2017-08-07T02:26:01.882Z,88.76
2017-08-07T02:26:42.776Z,88.85
2017-08-07T02:27:23.683Z,88.95
2017-08-07T02:28:04.570Z,88.76
2017-08-07T02:28:45.457Z,89.04
2017-08-07T02:29:26.348Z,89.04
2017-08-07T02:30:07.242Z,88.42
2017-08-07T02:30:48.130Z,88.56
2017-08-07T02:31:29.013Z,88.61
2017-08-07T02:32:09.906Z,88.37
2017-08-07T02:32:50.797Z,88.95
2017-08-07T02:33:31.672Z,89.33
2017-08-07T02:34:12.565Z,88.95
2017-08-07T02:34:53.444Z,89.23
2017-08-07T02:35:34.332Z,89.33
2017-08-07T02:36:15.217Z,89.33
2017-08-07T02:36:56.106Z,89.14
2017-08-07T02:37:36.993Z,88.95
2017-08-07T02:38:17.884Z,89.23
2017-08-07T02:38:58.776Z,88.95
2017-08-07T02:39:39.665Z,89.43
2017-08-07T02:40:20.550Z,89.23
2017-08-07T02:41:01.434Z,88.76
2017-08-07T02:41:42.320Z,88.56
2017-08-07T02:42:23.216Z,89.33
2017-08-07T02:43:04.120Z,89.43
2017-08-07T02:43:45.009Z,89.72
2017-08-07T02:44:25.901Z,89.33
2017-08-07T02:45:06.781Z,89.14
2017-08-07T02:45:47.672Z,89.33
2017-08-07T02:46:28.561Z,88.28
2017-08-07T02:47:09.445Z,88.95
2017-08-07T02:47:50.334Z,88.85
2017-08-07T02:48:31.231Z,89.14
2017-08-07T02:49:12.120Z,88.85
2017-08-07T02:49:53.013Z,89.33
2017-08-07T02:50:33.893Z,89.33
2017-08-07T02:51:14.795Z,89.04
2017-08-07T02:51:55.686Z,89.04
2017-08-07T02:52:36.576Z,88.95
2017-08-07T02:53:17.459Z,89.14
2017-08-07T02:53:58.342Z,89.33
2017-08-07T02:54:39.230Z,89.52
2017-08-07T02:55:20.113Z,89.33
2017-08-07T02:56:01.004Z,88.85
2017-08-07T02:56:41.897Z,89.14
2017-08-07T02:57:22.786Z,89.33
2017-08-07T02:58:03.672Z,89.23
2017-08-07T02:58:44.564Z,88.95
2017-08-07T02:59:25.462Z,88.76
2017-08-07T03:00:06.345Z,89.14
2017-08-07T03:00:47.231Z,89.81
2017-08-07T03:01:28.115Z,89.81
2017-08-07T03:02:08.999Z,89.52
2017-08-07T03:02:49.895Z,89.23
2017-08-07T03:03:30.782Z,88.95
2017-08-07T03:04:11.676Z,89.23
2017-08-07T03:04:52.558Z,89.33
2017-08-07T03:05:33.454Z,89.33
2017-08-07T03:06:14.339Z,88.95
2017-08-07T03:06:55.220Z,89.62
2017-08-07T03:07:36.114Z,89.14
2017-08-07T03:08:17.005Z,89.52
2017-08-07T03:08:57.895Z,89.72
2017-08-07T03:09:38.784Z,88.9
2017-08-07T03:10:19.692Z,89.14
2017-08-07T03:11:00.580Z,89.14
2017-08-07T03:11:41.482Z,89.43
2017-08-07T03:12:22.375Z,89.62
2017-08-07T03:13:03.262Z,89.62
2017-08-07T03:13:44.159Z,89.33
2017-08-07T03:14:25.052Z,89.14
2017-08-07T03:15:05.935Z,89.23
2017-08-07T03:15:46.836Z,88.76
2017-08-07T03:16:27.724Z,89.62
2017-08-07T03:17:08.608Z,89.43
2017-08-07T03:17:49.490Z,89.62
2017-08-07T03:18:30.399Z,89.81
2017-08-07T03:19:11.283Z,89.23
2017-08-07T03:19:52.172Z,89.04
2017-08-07T03:20:33.060Z,89.33
2017-08-07T03:21:13.950Z,89.33
2017-08-07T03:21:54.853Z,89.14
2017-08-07T03:22:35.743Z,89.33
2017-08-07T03:23:16.633Z,89.23
2017-08-07T03:23:57.518Z,89.33
2017-08-07T03:24:38.399Z,89.72
2017-08-07T03:25:19.283Z,89.23
2017-08-07T03:26:00.226Z,89.72
2017-08-07T03:26:41.114Z,89.04
2017-08-07T03:27:22.006Z,89.14
2017-08-07T03:28:02.894Z,89.04
2017-08-07T03:28:43.776Z,89.52
2017-08-07T03:29:24.663Z,89.43
2017-08-07T03:30:05.568Z,89.33
2017-08-07T03:30:46.453Z,89.14
2017-08-07T03:31:27.335Z,89.23
2017-08-07T03:32:08.222Z,89.43
2017-08-07T03:32:49.127Z,89.14
2017-08-07T03:33:30.005Z,89.33
2017-08-07T03:34:10.890Z,89.33
2017-08-07T03:34:51.803Z,89.33
2017-08-07T03:35:32.683Z,89.81
2017-08-07T03:36:13.566Z,89.33
2017-08-07T03:36:54.444Z,89.72
2017-08-07T03:37:35.336Z,89.04
2017-08-07T03:38:16.224Z,89.14
2017-08-07T03:38:57.108Z,89.14
2017-08-07T03:39:37.990Z,89.52
2017-08-07T03:40:18.885Z,89.33
2017-08-07T03:40:59.778Z,89.33
2017-08-07T03:41:40.671Z,89.43
2017-08-07T03:42:21.558Z,88.95
2017-08-07T03:43:02.451Z,89.04
2017-08-07T03:43:43.342Z,89.04
2017-08-07T03:44:24.221Z,89.9
2017-08-07T03:45:05.108Z,89.62
2017-08-07T03:45:45.989Z,89.43
2017-08-07T03:46:27.045Z,89.33
2017-08-07T03:47:07.947Z,89.62
2017-08-07T03:47:48.832Z,89.38
2017-08-07T03:48:29.720Z,89.48
2017-08-07T03:49:10.605Z,89.67
2017-08-07T03:49:51.494Z,89.67
2017-08-07T03:50:32.381Z,89.29
2017-08-07T03:51:13.281Z,89.38
2017-08-07T03:51:54.171Z,89.48
2017-08-07T03:52:35.061Z,89.67
2017-08-07T03:53:15.955Z,89.48
2017-08-07T03:53:56.845Z,89.29
2017-08-07T03:54:37.723Z,89.76
2017-08-07T03:55:18.602Z,89.86
2017-08-07T03:55:59.489Z,89.48
2017-08-07T03:56:40.375Z,89.67
2017-08-07T03:57:21.262Z,89.67
2017-08-07T03:58:02.150Z,89.48
2017-08-07T03:58:43.055Z,89
2017-08-07T03:59:23.943Z,89.72
2017-08-07T04:00:04.834Z,89.72
2017-08-07T04:00:45.718Z,89.72
2017-08-07T04:01:26.601Z,89.91
2017-08-07T04:02:07.497Z,90.1
2017-08-07T04:02:48.395Z,90.01
2017-08-07T04:03:29.276Z,89.62
2017-08-07T04:04:10.162Z,89.72
2017-08-07T04:04:51.046Z,89.43
2017-08-07T04:05:31.928Z,90.01
2017-08-07T04:06:12.815Z,89.34
2017-08-07T04:06:53.700Z,89.24
2017-08-07T04:07:34.590Z,89.53
2017-08-07T04:08:15.523Z,90.1
2017-08-07T04:08:56.416Z,89.72
2017-08-07T04:09:37.300Z,90.01
2017-08-07T04:10:18.190Z,89.53
2017-08-07T04:10:59.073Z,89.91
2017-08-07T04:11:39.972Z,89.72
2017-08-07T04:12:20.861Z,89.53
2017-08-07T04:13:01.809Z,89.91
2017-08-07T04:13:42.679Z,89.34
2017-08-07T04:14:23.565Z,89.91
2017-08-07T04:15:04.457Z,89.62
2017-08-07T04:15:45.337Z,89.72
2017-08-07T04:16:26.236Z,89.72
2017-08-07T04:17:07.131Z,89.91
2017-08-07T04:17:48.017Z,90.1
2017-08-07T04:18:28.899Z,89.81
2017-08-07T04:20:08.490Z,89.34
2017-08-07T04:20:49.614Z,89.91
2017-08-07T04:21:30.499Z,89.91
2017-08-07T04:22:11.398Z,90.1
2017-08-07T04:22:52.263Z,89.91
2017-08-07T04:23:33.152Z,89.62
2017-08-07T04:24:14.037Z,89.91
2017-08-07T04:24:54.919Z,89.72
2017-08-07T04:25:35.801Z,89.91
2017-08-07T04:26:16.682Z,89.81
2017-08-07T04:26:57.579Z,89.53
2017-08-07T04:27:38.472Z,89.72
2017-08-07T04:28:19.343Z,89.62
2017-08-07T04:29:00.271Z,89.95
2017-08-07T04:32:13.290Z,90.15
2017-08-07T04:33:41.381Z,90.1
2017-08-07T04:34:22.265Z,90.1
2017-08-07T04:35:03.160Z,90.24
2017-08-07T04:35:44.049Z,89.91
2017-08-07T04:36:24.926Z,90.15
2017-08-07T04:37:05.830Z,89.53
2017-08-07T04:37:46.734Z,89.76
2017-08-07T04:38:27.574Z,89.76
2017-08-07T04:39:08.452Z,89.53
2017-08-07T04:39:49.337Z,89.58
2017-08-07T04:40:30.242Z,89.72
2017-08-07T04:41:11.202Z,89.91
2017-08-07T04:41:52.082Z,89.95
2017-08-07T04:42:32.978Z,89.95
2017-08-07T04:43:13.872Z,89.86
2017-08-07T04:43:54.743Z,89.86
2017-08-07T04:44:35.619Z,89.09
2017-08-07T04:45:16.509Z,89.29
2017-08-07T04:45:57.404Z,89.48
2017-08-07T04:46:38.278Z,89.48
2017-08-07T04:47:19.162Z,89.58
2017-08-07T04:48:00.063Z,89.48
2017-08-07T04:48:40.950Z,89.38
2017-08-07T04:49:21.834Z,89.48
2017-08-07T04:50:02.724Z,89.67
2017-08-07T04:50:43.613Z,89.86
2017-08-07T04:51:24.506Z,89.58
2017-08-07T04:52:05.413Z,89.58
2017-08-07T04:52:46.280Z,89.58
2017-08-07T04:53:27.184Z,89.58
2017-08-07T04:54:08.067Z,89.58
2017-08-07T04:54:48.964Z,89.48
2017-08-07T04:55:29.846Z,89.58
2017-08-07T04:57:03.228Z,89.58
2017-08-07T04:57:44.138Z,89.58
2017-08-07T04:58:25.038Z,89.58
2017-08-07T04:59:05.927Z,89.58
2017-08-07T04:59:46.808Z,89.19
2017-08-07T05:00:27.689Z,89.38
2017-08-07T05:01:08.565Z,89.38
2017-08-07T05:01:49.452Z,89.19
2017-08-07T05:02:30.343Z,89.38
2017-08-07T05:03:11.226Z,89.76
2017-08-07T05:03:52.098Z,89.48
2017-08-07T05:04:32.977Z,89.48
2017-08-07T05:05:13.867Z,89.09
2017-08-07T05:05:54.754Z,89.48
2017-08-07T05:06:35.643Z,88.81
2017-08-07T05:07:16.526Z,89.29
2017-08-07T05:07:57.415Z,88.9
2017-08-07T05:08:38.303Z,89.19
2017-08-07T05:09:19.176Z,89.19
2017-08-07T05:10:00.050Z,89.19
2017-08-07T05:10:40.941Z,89.19
2017-08-07T05:11:21.833Z,89.09
2017-08-07T05:12:02.727Z,88.9
2017-08-07T05:12:43.628Z,89.38
2017-08-07T05:13:24.519Z,89.14
2017-08-07T05:14:05.387Z,88.9
2017-08-07T05:14:46.272Z,88.62
2017-08-07T05:15:27.182Z,89.14
2017-08-07T05:16:08.054Z,88.95
2017-08-07T05:16:48.926Z,88.85
2017-08-07T05:17:29.798Z,88.85
2017-08-07T05:18:10.690Z,88.85
2017-08-07T05:18:51.566Z,88.85
2017-08-07T05:19:32.446Z,88.76
2017-08-07T05:20:13.314Z,88.76
2017-08-07T05:20:54.196Z,88.95
2017-08-07T05:21:35.086Z,88.66
2017-08-07T05:22:15.976Z,88.95
2017-08-07T05:22:56.855Z,88.66
2017-08-07T05:23:37.739Z,88.28
2017-08-07T05:24:18.646Z,88.76
2017-08-07T05:24:59.534Z,88.76
2017-08-07T05:25:40.443Z,88.76
2017-08-07T05:26:21.338Z,88.37
2017-08-07T05:27:02.229Z,88.56
2017-08-07T05:27:43.120Z,88.76
2017-08-07T05:28:24.001Z,88.09
2017-08-07T05:29:04.905Z,88.8
2017-08-07T05:29:45.786Z,88.32
2017-08-07T05:30:26.676Z,88.13
2017-08-07T05:31:07.559Z,88.13
2017-08-07T05:31:48.456Z,87.84
2017-08-07T05:32:29.344Z,88.13
2017-08-07T05:33:10.228Z,87.74
2017-08-07T05:33:51.122Z,88.03
2017-08-07T05:34:32.036Z,87.94
2017-08-07T05:35:12.884Z,88.23
2017-08-07T05:35:53.768Z,87.74
2017-08-07T05:36:34.659Z,87.74
2017-08-07T05:37:15.546Z,87.84
2017-08-07T05:37:56.433Z,87.37
2017-08-07T05:38:37.315Z,87.74
2017-08-07T05:39:18.202Z,87.46
2017-08-07T05:39:59.091Z,87.84
2017-08-07T05:40:39.988Z,87.17
2017-08-07T05:41:20.870Z,86.74
2017-08-07T05:42:49.996Z,86.93
2017-08-07T05:43:30.878Z,87.12
2017-08-07T05:44:11.758Z,87.21
2017-08-07T05:44:52.649Z,87.12
2017-08-07T05:45:33.612Z,87.12
2017-08-07T05:46:14.480Z,86.74
2017-08-07T05:46:55.364Z,86.64
2017-08-07T05:47:36.257Z,86.64
2017-08-07T05:48:17.167Z,86.64
2017-08-07T05:48:58.053Z,86.64
2017-08-07T05:49:38.926Z,86.54
2017-08-07T05:50:19.835Z,86.54
2017-08-07T05:51:00.708Z,86.35
2017-08-07T05:51:41.604Z,86.64
2017-08-07T05:52:22.503Z,86.25
2017-08-07T05:53:03.384Z,86.45
2017-08-07T05:53:44.309Z,86.3
2017-08-07T05:55:12.405Z,85.82
2017-08-07T05:55:53.291Z,85.72
2017-08-07T05:56:34.175Z,85.72
2017-08-07T05:57:15.061Z,85.92
2017-08-07T05:57:55.943Z,86.01
2017-08-07T05:58:36.833Z,85.44
2017-08-07T05:59:17.734Z,85.34
2017-08-07T05:59:58.626Z,84.77
2017-08-07T06:00:39.504Z,85.44
2017-08-07T06:01:20.391Z,85.53
2017-08-07T06:02:01.290Z,85.15
2017-08-07T06:02:42.178Z,85.15
2017-08-07T06:03:23.063Z,84.58
2017-08-07T06:04:03.952Z,84.61
2017-08-07T06:04:44.879Z,85
2017-08-07T06:05:25.767Z,84.91
2017-08-07T06:07:24.693Z,84.91
2017-08-07T06:08:05.559Z,84.61
2017-08-07T06:08:46.440Z,84.71
2017-08-07T06:09:27.370Z,83.85
2017-08-07T06:10:08.312Z,84.14
2017-08-07T06:10:49.182Z,84.52
2017-08-07T06:11:30.065Z,84.04
2017-08-07T06:12:10.937Z,84.04
2017-08-07T06:12:51.827Z,84.18
2017-08-07T06:13:32.718Z,83.56
2017-08-07T06:14:13.608Z,83.65
2017-08-07T06:14:54.498Z,83.27
2017-08-07T06:15:35.377Z,83.18
2017-08-07T06:16:16.267Z,83.27
2017-08-07T06:16:57.141Z,83.37
2017-08-07T06:17:38.029Z,83.41
2017-08-07T06:18:18.914Z,84.14
2017-08-07T06:18:59.802Z,83.98
2017-08-07T06:19:40.723Z,83.41
2017-08-07T06:20:21.595Z,82.74
2017-08-07T06:21:02.462Z,82.74
2017-08-07T06:21:43.358Z,82.54
2017-08-07T06:22:24.256Z,81.97
2017-08-07T06:23:05.135Z,81.78
2017-08-07T06:23:46.016Z,82.07
2017-08-07T06:24:26.956Z,81.34
2017-08-07T06:25:07.789Z,80.96
2017-08-07T06:25:48.676Z,80.86
2017-08-07T06:26:29.562Z,80.86
2017-08-07T06:27:10.465Z,81.05
2017-08-07T06:27:51.343Z,81.05
2017-08-07T06:28:32.238Z,81.43
2017-08-07T06:29:13.128Z,80.47
2017-08-07T06:29:54.052Z,80.66
2017-08-07T06:30:34.916Z,80.76
2017-08-07T06:31:15.806Z,80.57
2017-08-07T06:31:56.702Z,80.47
2017-08-07T06:32:37.588Z,80.57
2017-08-07T06:33:18.491Z,80.61
2017-08-07T06:33:59.380Z,80.61
2017-08-07T06:34:40.273Z,80.61
2017-08-07T06:35:21.206Z,80.13
2017-08-07T06:36:02.059Z,79.55
2017-08-07T06:36:42.949Z,79.65
2017-08-07T06:37:23.850Z,79.6
2017-08-07T06:38:04.734Z,79.02
2017-08-07T06:38:45.629Z,78.63
2017-08-07T06:39:26.521Z,77.86
2017-08-07T06:40:07.398Z,77.76
2017-08-07T06:40:48.279Z,76.23
2017-08-07T06:41:29.182Z,75.21
2017-08-07T06:42:10.075Z,75.69
2017-08-07T06:42:50.968Z,75.4
2017-08-07T06:43:31.869Z,75.69
2017-08-07T06:44:12.762Z,75.31
2017-08-07T06:44:53.669Z,74.67
2017-08-07T06:45:34.576Z,74.67
2017-08-07T06:46:15.469Z,73.36
2017-08-07T06:46:56.369Z,72.63
2017-08-07T06:47:37.251Z,70.25
2017-08-07T06:48:18.152Z,69.23
2017-08-07T06:48:59.055Z,68.59
2017-08-07T06:49:39.938Z,65.56
2017-08-07T06:50:20.845Z,64.11
2017-08-07T06:51:01.736Z,62.12
2017-08-07T06:51:42.640Z,60.69
2017-08-07T06:52:23.537Z,58.98
2017-08-07T06:53:04.493Z,59.18
2017-08-07T06:55:04.284Z,55.17
2017-08-07T06:55:45.167Z,54.81
2017-08-07T06:56:26.073Z,54.03
2017-08-07T06:57:06.973Z,52.75
2017-08-07T06:57:47.870Z,52.66
2017-08-07T06:58:28.941Z,54.16
2017-08-07T06:59:09.829Z,52.93
2017-08-07T06:59:51.523Z,51.98
2017-08-07T07:00:32.415Z,50.92
2017-08-07T07:01:13.308Z,50.26
2017-08-07T07:01:54.209Z,48.61
2017-08-07T07:02:35.100Z,48.22
2017-08-07T07:03:15.993Z,48.15
2017-08-07T07:03:56.910Z,47.96
2017-08-07T07:04:37.805Z,46.69
2017-08-07T07:05:18.705Z,45.92
2017-08-07T07:05:59.591Z,45.82
2017-08-07T07:06:40.488Z,45.31
2017-08-07T07:07:21.410Z,45.99
2017-08-07T07:08:02.306Z,45.99
2017-08-07T07:08:43.213Z,45.48
2017-08-07T07:09:24.099Z,46.43
2017-08-07T07:10:05.014Z,46.45
2017-08-07T07:10:45.908Z,45.97
2017-08-07T07:11:26.836Z,46.45
2017-08-07T07:12:07.705Z,46.75
2017-08-07T07:12:48.617Z,46.45
2017-08-07T07:13:29.530Z,46.24
2017-08-07T07:14:10.436Z,47.26
2017-08-07T07:14:51.336Z,48.18
2017-08-07T07:15:32.232Z,47.42
2017-08-07T07:16:13.151Z,45.8
2017-08-07T07:16:54.056Z,45.8
2017-08-07T07:17:34.960Z,44.85
2017-08-07T07:18:15.865Z,44.85
2017-08-07T07:18:56.770Z,45.43
2017-08-07T07:19:37.671Z,45.34
2017-08-07T07:20:18.552Z,44.65
2017-08-07T07:20:59.455Z,43.88
2017-08-07T07:21:40.390Z,44.75
2017-08-07T07:22:21.259Z,44.95
2017-08-07T07:23:02.152Z,45.04
2017-08-07T07:23:43.032Z,45.14
2017-08-07T07:24:23.939Z,44.85
2017-08-07T07:25:04.860Z,44.95
2017-08-07T07:25:45.756Z,44.75
2017-08-07T07:26:26.662Z,45.14
2017-08-07T07:27:07.553Z,45.62
2017-08-07T07:27:48.455Z,45.34
2017-08-07T07:28:29.360Z,44.75
2017-08-07T07:29:10.260Z,44.65
2017-08-07T07:29:51.151Z,45.04
2017-08-07T07:30:32.062Z,44.83
2017-08-07T07:31:12.957Z,45.43
2017-08-07T07:31:53.855Z,45.34
2017-08-07T07:32:34.807Z,45.24
2017-08-07T07:33:15.713Z,45.53
2017-08-07T07:33:56.619Z,44.95
2017-08-07T07:34:37.535Z,45.24
2017-08-07T07:35:18.415Z,45.34
2017-08-07T07:35:59.334Z,45.04
2017-08-07T07:36:40.221Z,44.56
2017-08-07T07:37:21.117Z,45.41
2017-08-07T07:38:01.990Z,46.38
2017-08-07T07:38:42.879Z,45.45
2017-08-07T07:39:24.614Z,44.87
2017-08-07T07:40:05.496Z,44.7
2017-08-07T07:40:46.410Z,43.73
2017-08-07T07:41:27.310Z,43.34
2017-08-07T07:42:08.216Z,43.15
2017-08-07T07:42:49.104Z,43.15
2017-08-07T07:43:30.016Z,43.15
2017-08-07T07:44:10.912Z,43.34
2017-08-07T07:44:51.818Z,43.44
2017-08-07T07:45:32.732Z,42.36
2017-08-07T07:46:13.625Z,42.44
2017-08-07T07:46:54.532Z,42.35
2017-08-07T07:47:35.422Z,42.44
2017-08-07T07:48:16.321Z,42.46
2017-08-07T07:48:57.215Z,42.36
2017-08-07T07:49:38.131Z,42.27
2017-08-07T07:50:19.021Z,42.18
2017-08-07T07:50:59.922Z,42.66
2017-08-07T07:51:40.840Z,42.15
2017-08-07T07:52:21.729Z,42.08
2017-08-07T07:53:02.662Z,41.88
2017-08-07T07:53:43.569Z,41.78
2017-08-07T07:54:24.470Z,41.98
2017-08-07T07:55:05.343Z,41.78
2017-08-07T07:55:46.237Z,41.78
2017-08-07T07:56:27.131Z,41.3
2017-08-07T07:57:08.212Z,41.67
2017-08-07T07:57:49.141Z,40.99
2017-08-07T07:59:27.772Z,41.67
2017-08-07T08:00:08.665Z,41.69
2017-08-07T08:00:49.582Z,41.1
2017-08-07T08:01:30.493Z,41.2
2017-08-07T08:02:11.399Z,41.03
2017-08-07T08:02:52.302Z,40.83
2017-08-07T08:03:33.207Z,40.44
2017-08-07T08:04:14.113Z,40.93
2017-08-07T08:04:55.025Z,40.42
2017-08-07T08:05:36.282Z,40.52
2017-08-07T08:06:17.288Z,41.2
2017-08-07T08:06:58.191Z,41.22
2017-08-07T08:07:39.079Z,40.64
2017-08-07T08:08:19.961Z,39.86
2017-08-07T08:09:00.869Z,39.86
2017-08-07T08:09:41.761Z,39.37
2017-08-07T08:10:22.673Z,39.39
2017-08-07T08:11:03.573Z,39.88
2017-08-07T08:11:44.453Z,40.91
2017-08-07T08:12:25.341Z,41.03
2017-08-07T08:13:06.250Z,40.17
2017-08-07T08:13:47.128Z,39.49
2017-08-07T08:14:28.021Z,39
2017-08-07T08:15:08.944Z,38.81
2017-08-07T08:15:49.887Z,39.2
2017-08-07T08:16:30.848Z,38.81
2017-08-07T08:17:11.729Z,39.12
2017-08-07T08:17:52.620Z,38.81
2017-08-07T08:18:33.518Z,39.12
2017-08-07T08:19:14.418Z,38.15
2017-08-07T08:19:55.472Z,37.54
2017-08-07T08:20:36.386Z,38.32
2017-08-07T08:21:17.288Z,38.15
2017-08-07T08:21:58.185Z,38.24
2017-08-07T08:22:39.083Z,38.85
2017-08-07T08:23:19.991Z,37.79
2017-08-07T08:24:00.913Z,37.45
2017-08-07T08:24:41.814Z,38.44
2017-08-07T08:25:22.712Z,38.13
2017-08-07T08:26:03.599Z,38.32
2017-08-07T08:26:44.536Z,38.23
2017-08-07T08:27:25.430Z,38.23
2017-08-07T08:28:06.338Z,37.93
2017-08-07T08:29:40.458Z,37.26
2017-08-07T08:30:21.372Z,36.98
2017-08-07T08:31:02.273Z,36.41
2017-08-07T08:31:43.165Z,36.22
2017-08-07T08:32:24.062Z,38.23
2017-08-07T08:33:04.954Z,38.31
2017-08-07T08:33:45.844Z,38.73
2017-08-07T08:34:26.758Z,37.37
2017-08-07T08:35:07.667Z,37.31
2017-08-07T08:35:48.583Z,36.86
2017-08-07T08:36:29.474Z,34.61
2017-08-07T08:37:10.395Z,35.04
2017-08-07T08:37:51.294Z,33.87
2017-08-07T08:38:32.200Z,33.33
2017-08-07T08:39:13.098Z,31.88
2017-08-07T08:39:53.996Z,30.9
2017-08-07T08:40:34.889Z,29.93
2017-08-07T08:41:15.785Z,30.62
2017-08-07T08:41:56.684Z,30.43
2017-08-07T08:42:37.589Z,30.32
2017-08-07T08:43:18.469Z,30.61
2017-08-07T08:43:59.381Z,30.61
2017-08-07T08:44:40.279Z,30.71
2017-08-07T08:45:21.199Z,30.91
2017-08-07T08:46:02.094Z,30.35
2017-08-07T08:46:43.007Z,30.75
2017-08-07T08:47:23.919Z,30.96
2017-08-07T08:48:04.828Z,29.1
2017-08-07T08:48:45.767Z,28.75
2017-08-07T08:49:26.667Z,30.62
2017-08-07T08:50:07.557Z,30.27
2017-08-07T08:50:48.471Z,27.94
2017-08-07T08:51:29.386Z,28.69
2017-08-07T08:52:10.302Z,27.12
2017-08-07T08:52:51.212Z,28.11
2017-08-07T08:53:32.120Z,29.2
2017-08-07T08:54:13.003Z,27.15
2017-08-07T08:54:53.895Z,27.25
2017-08-07T08:55:34.802Z,27.25
2017-08-07T08:56:15.700Z,27.74
2017-08-07T08:56:56.599Z,26.37
2017-08-07T08:57:37.502Z,26.89
2017-08-07T08:58:18.396Z,26.31
2017-08-07T08:58:59.311Z,25.23
2017-08-07T08:59:40.224Z,24.93
2017-08-07T09:00:21.118Z,24.73
2017-08-07T09:01:02.025Z,25.02
2017-08-07T09:01:42.947Z,25.52